sensor_id;sensor_type;location;lat;lon;timestamp;pressure;altitude;pressure_sealevel;temperature;humidity
13068;BME280;6600;51.362;6.686;2023-03-31T00:01:28;100081.94;;;11.85;100.00
13068;BME280;6600;51.362;6.686;2023-03-31T00:03:54;100072.38;;;11.89;100.00
13068;BME280;6600;51.362;6.686;2023-03-31T00:06:28;100066.31;;;11.82;100.00
13068;BME280;6600;51.362;6.686;2023-03-31T00:08:53;100059.44;;;11.86;100.00
13068;BME280;6600;51.362;6.686;2023-03-31T00:11:20;100069.19;;;11.92;100.00
13068;BME280;6600;51.362;6.686;2023-03-31T00:13:46;100061.38;;;11.90;100.00
13068;BME280;6600;51.362;6.686;2023-03-31T00:16:11;100053.91;;;11.92;100.00
13068;BME280;6600;51.362;6.686;2023-03-31T00:18:37;100059.69;;;12.01;100.00
13068;BME280;6600;51.362;6.686;2023-03-31T00:21:08;100048.38;;;11.99;100.00
13068;BME280;6600;51.362;6.686;2023-03-31T00:23:33;100050.47;;;11.97;100.00
13068;BME280;6600;51.362;6.686;2023-03-31T00:25:59;100039.66;;;11.92;100.00
13068;BME280;6600;51.362;6.686;2023-03-31T00:28:25;100031.44;;;11.82;100.00
13068;BME280;6600;51.362;6.686;2023-03-31T00:30:50;100023.44;;;11.87;100.00
13068;BME280;6600;51.362;6.686;2023-03-31T00:33:16;100023.44;;;11.87;100.00
13068;BME280;6600;51.362;6.686;2023-03-31T00:35:42;100018.66;;;11.89;100.00
13068;BME280;6600;51.362;6.686;2023-03-31T00:38:07;100016.00;;;11.89;100.00
13068;BME280;6600;51.362;6.686;2023-03-31T00:40:34;100020.88;;;11.92;100.00
13068;BME280;6600;51.362;6.686;2023-03-31T00:42:59;100013.78;;;11.86;100.00
13068;BME280;6600;51.362;6.686;2023-03-31T00:45:29;100008.16;;;11.87;100.00
13068;BME280;6600;51.362;6.686;2023-03-31T00:50:33;99993.53;;;11.95;100.00
13068;BME280;6600;51.362;6.686;2023-03-31T00:53:05;99996.44;;;11.93;100.00
13068;BME280;6600;51.362;6.686;2023-03-31T00:55:36;99991.34;;;11.92;100.00
13068;BME280;6600;51.362;6.686;2023-03-31T00:58:03;99986.47;;;11.89;100.00
13068;BME280;6600;51.362;6.686;2023-03-31T01:00:31;99984.72;;;11.83;100.00
13068;BME280;6600;51.362;6.686;2023-03-31T01:02:59;99978.06;;;11.85;100.00
13068;BME280;6600;51.362;6.686;2023-03-31T01:05:38;99968.63;;;11.83;100.00
13068;BME280;6600;51.362;6.686;2023-03-31T01:08:07;99964.22;;;11.77;100.00
13068;BME280;6600;51.362;6.686;2023-03-31T01:10:35;99960.47;;;11.78;100.00
13068;BME280;6600;51.362;6.686;2023-03-31T01:13:08;99948.13;;;11.77;100.00
13068;BME280;6600;51.362;6.686;2023-03-31T01:15:35;99958.03;;;11.76;100.00
13068;BME280;6600;51.362;6.686;2023-03-31T01:18:00;99957.69;;;11.73;100.00
13068;BME280;6600;51.362;6.686;2023-03-31T01:28:46;99913.59;;;11.69;100.00
13068;BME280;6600;51.362;6.686;2023-03-31T01:37:08;99902.66;;;11.58;100.00
13068;BME280;6600;51.362;6.686;2023-03-31T01:47:57;99887.47;;;11.47;100.00
13068;BME280;6600;51.362;6.686;2023-03-31T01:50:35;99875.81;;;11.42;100.00
13068;BME280;6600;51.362;6.686;2023-03-31T01:53:29;99871.59;;;11.46;100.00
13068;BME280;6600;51.362;6.686;2023-03-31T01:56:09;99865.09;;;11.42;100.00
13068;BME280;6600;51.362;6.686;2023-03-31T01:58:42;99857.97;;;11.47;100.00
13068;BME280;6600;51.362;6.686;2023-03-31T02:01:22;99857.69;;;11.49;100.00
13068;BME280;6600;51.362;6.686;2023-03-31T02:03:56;99850.81;;;11.53;100.00
13068;BME280;6600;51.362;6.686;2023-03-31T02:06:26;99842.03;;;11.57;100.00
13068;BME280;6600;51.362;6.686;2023-03-31T02:08:57;99842.03;;;11.57;100.00
13068;BME280;6600;51.362;6.686;2023-03-31T02:11:27;99825.44;;;11.60;100.00
13068;BME280;6600;51.362;6.686;2023-03-31T02:13:55;99824.41;;;11.61;100.00
13068;BME280;6600;51.362;6.686;2023-03-31T02:16:25;99823.31;;;11.62;100.00
13068;BME280;6600;51.362;6.686;2023-03-31T02:18:54;99821.09;;;11.71;100.00
13068;BME280;6600;51.362;6.686;2023-03-31T02:21:27;99819.69;;;11.69;100.00
13068;BME280;6600;51.362;6.686;2023-03-31T02:23:54;99805.69;;;11.66;100.00
13068;BME280;6600;51.362;6.686;2023-03-31T02:26:28;99797.97;;;11.70;100.00
13068;BME280;6600;51.362;6.686;2023-03-31T02:28:55;99795.53;;;11.69;100.00
13068;BME280;6600;51.362;6.686;2023-03-31T02:31:28;99785.38;;;11.71;100.00
13068;BME280;6600;51.362;6.686;2023-03-31T02:33:57;99777.34;;;11.71;100.00
13068;BME280;6600;51.362;6.686;2023-03-31T02:36:24;99762.94;;;11.77;100.00
13068;BME280;6600;51.362;6.686;2023-03-31T02:39:04;99750.66;;;11.81;100.00
13068;BME280;6600;51.362;6.686;2023-03-31T02:41:31;99744.78;;;11.84;100.00
13068;BME280;6600;51.362;6.686;2023-03-31T02:43:57;99742.38;;;11.82;100.00
13068;BME280;6600;51.362;6.686;2023-03-31T02:46:23;99729.19;;;11.81;100.00
13068;BME280;6600;51.362;6.686;2023-03-31T02:48:51;99719.56;;;11.85;100.00
13068;BME280;6600;51.362;6.686;2023-03-31T02:54:15;99700.84;;;11.90;100.00
13068;BME280;6600;51.362;6.686;2023-03-31T03:03:00;99685.81;;;11.89;100.00
13068;BME280;6600;51.362;6.686;2023-03-31T03:05:40;99668.00;;;11.83;100.00
13068;BME280;6600;51.362;6.686;2023-03-31T03:08:49;99654.16;;;11.91;100.00
13068;BME280;6600;51.362;6.686;2023-03-31T03:11:41;99643.91;;;11.88;100.00
13068;BME280;6600;51.362;6.686;2023-03-31T03:17:01;99642.47;;;11.80;100.00
13068;BME280;6600;51.362;6.686;2023-03-31T03:19:30;99639.88;;;11.85;100.00
13068;BME280;6600;51.362;6.686;2023-03-31T03:21:56;99641.66;;;11.80;100.00
13068;BME280;6600;51.362;6.686;2023-03-31T03:24:22;99630.09;;;11.79;100.00
13068;BME280;6600;51.362;6.686;2023-03-31T03:26:47;99632.31;;;11.82;100.00
13068;BME280;6600;51.362;6.686;2023-03-31T03:29:13;99629.31;;;11.79;100.00
13068;BME280;6600;51.362;6.686;2023-03-31T03:31:39;99616.94;;;11.78;100.00
13068;BME280;6600;51.362;6.686;2023-03-31T03:34:05;99617.78;;;11.78;100.00
13068;BME280;6600;51.362;6.686;2023-03-31T03:36:31;99601.91;;;11.77;100.00
13068;BME280;6600;51.362;6.686;2023-03-31T03:38:57;99607.69;;;11.69;100.00
13068;BME280;6600;51.362;6.686;2023-03-31T03:41:22;99617.84;;;11.66;100.00
13068;BME280;6600;51.362;6.686;2023-03-31T03:43:47;99606.56;;;11.64;100.00
13068;BME280;6600;51.362;6.686;2023-03-31T03:46:13;99598.00;;;11.68;100.00
13068;BME280;6600;51.362;6.686;2023-03-31T03:48:38;99596.97;;;11.69;100.00
13068;BME280;6600;51.362;6.686;2023-03-31T03:51:03;99597.59;;;11.76;100.00
13068;BME280;6600;51.362;6.686;2023-03-31T03:53:29;99588.44;;;11.72;100.00
13068;BME280;6600;51.362;6.686;2023-03-31T03:55:54;99551.41;;;11.74;100.00
13068;BME280;6600;51.362;6.686;2023-03-31T03:58:20;99539.53;;;11.70;100.00
13068;BME280;6600;51.362;6.686;2023-03-31T04:00:45;99537.94;;;11.69;100.00
13068;BME280;6600;51.362;6.686;2023-03-31T04:03:11;99540.03;;;11.66;100.00
13068;BME280;6600;51.362;6.686;2023-03-31T04:05:37;99543.97;;;11.59;100.00
13068;BME280;6600;51.362;6.686;2023-03-31T04:08:02;99538.78;;;11.52;100.00
13068;BME280;6600;51.362;6.686;2023-03-31T04:10:28;99548.50;;;11.58;100.00
13068;BME280;6600;51.362;6.686;2023-03-31T04:12:54;99554.69;;;11.59;100.00
13068;BME280;6600;51.362;6.686;2023-03-31T04:15:19;99547.22;;;11.61;100.00
13068;BME280;6600;51.362;6.686;2023-03-31T04:17:44;99543.28;;;11.69;100.00
13068;BME280;6600;51.362;6.686;2023-03-31T04:20:15;99529.31;;;11.66;100.00
13068;BME280;6600;51.362;6.686;2023-03-31T04:22:40;99521.22;;;11.61;100.00
13068;BME280;6600;51.362;6.686;2023-03-31T04:25:11;99508.66;;;11.67;100.00
13068;BME280;6600;51.362;6.686;2023-03-31T04:27:45;99509.00;;;11.71;100.00
13068;BME280;6600;51.362;6.686;2023-03-31T04:30:17;99491.22;;;11.70;100.00
13068;BME280;6600;51.362;6.686;2023-03-31T04:32:51;99472.78;;;11.73;100.00
13068;BME280;6600;51.362;6.686;2023-03-31T04:35:18;99474.91;;;11.71;100.00
13068;BME280;6600;51.362;6.686;2023-03-31T04:37:45;99471.31;;;11.65;100.00
13068;BME280;6600;51.362;6.686;2023-03-31T04:40:10;99455.31;;;11.71;100.00
13068;BME280;6600;51.362;6.686;2023-03-31T04:42:36;99448.28;;;11.70;100.00
13068;BME280;6600;51.362;6.686;2023-03-31T04:45:02;99448.19;;;11.59;100.00
13068;BME280;6600;51.362;6.686;2023-03-31T04:47:27;99441.50;;;11.62;100.00
13068;BME280;6600;51.362;6.686;2023-03-31T04:49:52;99438.59;;;11.63;100.00
13068;BME280;6600;51.362;6.686;2023-03-31T04:52:18;99420.56;;;11.59;100.00
13068;BME280;6600;51.362;6.686;2023-03-31T04:54:43;99410.59;;;11.54;100.00
13068;BME280;6600;51.362;6.686;2023-03-31T04:57:09;99408.22;;;11.58;100.00
13068;BME280;6600;51.362;6.686;2023-03-31T04:59:34;99399.91;;;11.59;100.00
13068;BME280;6600;51.362;6.686;2023-03-31T05:01:59;99392.13;;;11.58;100.00
13068;BME280;6600;51.362;6.686;2023-03-31T05:04:25;99386.50;;;11.59;100.00
13068;BME280;6600;51.362;6.686;2023-03-31T05:06:50;99384.84;;;11.53;100.00
13068;BME280;6600;51.362;6.686;2023-03-31T05:09:16;99370.59;;;11.53;100.00
13068;BME280;6600;51.362;6.686;2023-03-31T05:11:41;99374.56;;;11.45;100.00
13068;BME280;6600;51.362;6.686;2023-03-31T05:14:07;99370.81;;;11.46;100.00
13068;BME280;6600;51.362;6.686;2023-03-31T05:16:32;99367.31;;;11.46;100.00
13068;BME280;6600;51.362;6.686;2023-03-31T05:18:58;99364.91;;;11.44;100.00
13068;BME280;6600;51.362;6.686;2023-03-31T05:21:23;99364.34;;;11.42;100.00
13068;BME280;6600;51.362;6.686;2023-03-31T05:23:51;99358.50;;;11.50;100.00
13068;BME280;6600;51.362;6.686;2023-03-31T05:26:16;99353.41;;;11.49;100.00
13068;BME280;6600;51.362;6.686;2023-03-31T05:28:42;99344.53;;;11.48;100.00
13068;BME280;6600;51.362;6.686;2023-03-31T05:31:08;99336.03;;;11.56;100.00
13068;BME280;6600;51.362;6.686;2023-03-31T05:33:34;99336.25;;;11.50;100.00
13068;BME280;6600;51.362;6.686;2023-03-31T05:36:04;99332.81;;;11.54;100.00
13068;BME280;6600;51.362;6.686;2023-03-31T05:38:30;99333.88;;;11.53;100.00
13068;BME280;6600;51.362;6.686;2023-03-31T05:40:56;99327.16;;;11.56;100.00
13068;BME280;6600;51.362;6.686;2023-03-31T05:43:21;99327.97;;;11.56;100.00
13068;BME280;6600;51.362;6.686;2023-03-31T05:45:46;99314.88;;;11.60;100.00
13068;BME280;6600;51.362;6.686;2023-03-31T05:48:12;99312.94;;;11.55;100.00
13068;BME280;6600;51.362;6.686;2023-03-31T05:50:37;99319.13;;;11.56;100.00
13068;BME280;6600;51.362;6.686;2023-03-31T05:53:03;99310.56;;;11.59;100.00
13068;BME280;6600;51.362;6.686;2023-03-31T05:55:28;99309.81;;;11.63;100.00
13068;BME280;6600;51.362;6.686;2023-03-31T05:57:53;99312.47;;;11.63;100.00
13068;BME280;6600;51.362;6.686;2023-03-31T06:00:19;99316.00;;;11.69;100.00
13068;BME280;6600;51.362;6.686;2023-03-31T06:02:44;99310.91;;;11.68;100.00
13068;BME280;6600;51.362;6.686;2023-03-31T06:05:11;99300.19;;;11.68;100.00
13068;BME280;6600;51.362;6.686;2023-03-31T06:07:36;99306.91;;;11.70;100.00
13068;BME280;6600;51.362;6.686;2023-03-31T06:10:01;99294.50;;;11.64;100.00
13068;BME280;6600;51.362;6.686;2023-03-31T06:12:27;99290.19;;;11.58;100.00
13068;BME280;6600;51.362;6.686;2023-03-31T06:14:52;99290.19;;;11.58;100.00
13068;BME280;6600;51.362;6.686;2023-03-31T06:17:17;99289.06;;;11.54;100.00
13068;BME280;6600;51.362;6.686;2023-03-31T06:19:43;99285.31;;;11.55;100.00
13068;BME280;6600;51.362;6.686;2023-03-31T06:22:08;99290.41;;;11.51;100.00
13068;BME280;6600;51.362;6.686;2023-03-31T06:24:33;99287.22;;;11.54;100.00
13068;BME280;6600;51.362;6.686;2023-03-31T06:26:59;99280.16;;;11.48;100.00
13068;BME280;6600;51.362;6.686;2023-03-31T06:29:26;99286.59;;;11.47;100.00
13068;BME280;6600;51.362;6.686;2023-03-31T06:31:52;99287.16;;;11.49;100.00
13068;BME280;6600;51.362;6.686;2023-03-31T06:34:17;99287.66;;;11.46;100.00
13068;BME280;6600;51.362;6.686;2023-03-31T06:36:42;99288.78;;;11.50;100.00
13068;BME280;6600;51.362;6.686;2023-03-31T06:39:08;99286.63;;;11.52;100.00
13068;BME280;6600;51.362;6.686;2023-03-31T06:41:33;99283.72;;;11.54;100.00
13068;BME280;6600;51.362;6.686;2023-03-31T06:43:58;99281.78;;;11.49;100.00
13068;BME280;6600;51.362;6.686;2023-03-31T06:46:24;99275.31;;;11.45;100.00
13068;BME280;6600;51.362;6.686;2023-03-31T06:48:49;99267.84;;;11.47;100.00
13068;BME280;6600;51.362;6.686;2023-03-31T06:51:15;99265.44;;;11.51;100.00
13068;BME280;6600;51.362;6.686;2023-03-31T06:53:40;99267.84;;;11.52;100.00
13068;BME280;6600;51.362;6.686;2023-03-31T06:56:06;99260.91;;;11.56;100.00
13068;BME280;6600;51.362;6.686;2023-03-31T06:58:31;99258.78;;;11.58;100.00
13068;BME280;6600;51.362;6.686;2023-03-31T07:00:57;99256.59;;;11.55;100.00
13068;BME280;6600;51.362;6.686;2023-03-31T07:03:22;99250.25;;;11.66;100.00
13068;BME280;6600;51.362;6.686;2023-03-31T07:05:52;99259.94;;;11.68;100.00
13068;BME280;6600;51.362;6.686;2023-03-31T07:08:18;99258.38;;;11.72;100.00
13068;BME280;6600;51.362;6.686;2023-03-31T07:10:44;99247.13;;;11.75;100.00
13068;BME280;6600;51.362;6.686;2023-03-31T07:13:12;99243.56;;;11.69;100.00
13068;BME280;6600;51.362;6.686;2023-03-31T07:15:37;99252.41;;;11.64;100.00
13068;BME280;6600;51.362;6.686;2023-03-31T07:18:03;99245.94;;;11.60;100.00
13068;BME280;6600;51.362;6.686;2023-03-31T07:20:29;99243.78;;;11.62;100.00
13068;BME280;6600;51.362;6.686;2023-03-31T07:22:54;99241.97;;;11.68;100.00
13068;BME280;6600;51.362;6.686;2023-03-31T07:25:20;99245.41;;;11.63;100.00
13068;BME280;6600;51.362;6.686;2023-03-31T07:27:45;99241.66;;;11.64;100.00
13068;BME280;6600;51.362;6.686;2023-03-31T07:30:13;99233.06;;;11.62;100.00
13068;BME280;6600;51.362;6.686;2023-03-31T07:32:39;99249.16;;;11.62;100.00
13068;BME280;6600;51.362;6.686;2023-03-31T07:35:10;99231.19;;;11.63;100.00
13068;BME280;6600;51.362;6.686;2023-03-31T07:37:41;99234.16;;;11.66;100.00
13068;BME280;6600;51.362;6.686;2023-03-31T07:40:11;99239.59;;;11.72;100.00
13068;BME280;6600;51.362;6.686;2023-03-31T07:42:37;99242.78;;;11.69;100.00
13068;BME280;6600;51.362;6.686;2023-03-31T07:45:02;99239.63;;;11.77;100.00
13068;BME280;6600;51.362;6.686;2023-03-31T07:47:31;99230.25;;;11.79;100.00
13068;BME280;6600;51.362;6.686;2023-03-31T07:49:56;99233.72;;;11.80;100.00
13068;BME280;6600;51.362;6.686;2023-03-31T07:52:22;99236.97;;;11.82;100.00
13068;BME280;6600;51.362;6.686;2023-03-31T07:54:47;99239.09;;;11.80;100.00
13068;BME280;6600;51.362;6.686;2023-03-31T07:57:13;99239.09;;;11.80;100.00
13068;BME280;6600;51.362;6.686;2023-03-31T07:59:40;99233.19;;;11.78;100.00
13068;BME280;6600;51.362;6.686;2023-03-31T08:02:06;99227.25;;;11.76;100.00
13068;BME280;6600;51.362;6.686;2023-03-31T08:04:31;99232.38;;;11.72;100.00
13068;BME280;6600;51.362;6.686;2023-03-31T08:06:56;99235.78;;;11.68;100.00
13068;BME280;6600;51.362;6.686;2023-03-31T08:09:22;99217.06;;;11.73;100.00
13068;BME280;6600;51.362;6.686;2023-03-31T08:11:48;99205.25;;;11.74;100.00
13068;BME280;6600;51.362;6.686;2023-03-31T08:14:13;99197.22;;;11.74;100.00
13068;BME280;6600;51.362;6.686;2023-03-31T08:16:39;99198.28;;;11.73;100.00
13068;BME280;6600;51.362;6.686;2023-03-31T08:19:04;99205.31;;;11.79;100.00
13068;BME280;6600;51.362;6.686;2023-03-31T08:21:30;99195.97;;;11.91;100.00
13068;BME280;6600;51.362;6.686;2023-03-31T08:23:56;99201.19;;;12.13;100.00
13068;BME280;6600;51.362;6.686;2023-03-31T08:26:22;99198.53;;;12.28;100.00
13068;BME280;6600;51.362;6.686;2023-03-31T08:28:49;99195.63;;;12.40;100.00
13068;BME280;6600;51.362;6.686;2023-03-31T08:31:16;99195.94;;;12.53;100.00
13068;BME280;6600;51.362;6.686;2023-03-31T08:33:43;99192.19;;;12.59;100.00
13068;BME280;6600;51.362;6.686;2023-03-31T08:36:09;99190.06;;;12.66;100.00
13068;BME280;6600;51.362;6.686;2023-03-31T08:38:40;99190.59;;;12.74;100.00
13068;BME280;6600;51.362;6.686;2023-03-31T08:41:14;99186.88;;;12.85;100.00
13068;BME280;6600;51.362;6.686;2023-03-31T08:43:45;99184.19;;;12.85;100.00
13068;BME280;6600;51.362;6.686;2023-03-31T08:46:14;99186.31;;;12.88;100.00
13068;BME280;6600;51.362;6.686;2023-03-31T08:48:44;99185.78;;;13.01;100.00
13068;BME280;6600;51.362;6.686;2023-03-31T08:53:51;99185.28;;;13.24;100.00
13068;BME280;6600;51.362;6.686;2023-03-31T08:56:22;99189.03;;;13.28;100.00
13068;BME280;6600;51.362;6.686;2023-03-31T08:58:50;99167.00;;;13.21;100.00
13068;BME280;6600;51.362;6.686;2023-03-31T09:01:40;99180.19;;;13.33;100.00
13068;BME280;6600;51.362;6.686;2023-03-31T09:09:24;99174.53;;;13.24;100.00
13068;BME280;6600;51.362;6.686;2023-03-31T09:11:57;99162.97;;;13.24;100.00
13068;BME280;6600;51.362;6.686;2023-03-31T09:17:28;99159.19;;;13.35;99.48
13068;BME280;6600;51.362;6.686;2023-03-31T09:19:57;99158.38;;;13.29;98.36
13068;BME280;6600;51.362;6.686;2023-03-31T09:22:31;99155.13;;;13.42;98.90
13068;BME280;6600;51.362;6.686;2023-03-31T09:27:30;99158.91;;;13.51;98.63
13068;BME280;6600;51.362;6.686;2023-03-31T09:30:03;99143.81;;;13.60;98.50
13068;BME280;6600;51.362;6.686;2023-03-31T09:32:36;99145.44;;;13.61;96.98
13068;BME280;6600;51.362;6.686;2023-03-31T09:35:31;99134.59;;;13.77;97.10
13068;BME280;6600;51.362;6.686;2023-03-31T09:37:58;99136.25;;;13.68;96.09
13068;BME280;6600;51.362;6.686;2023-03-31T09:40:26;99130.84;;;13.78;96.42
13068;BME280;6600;51.362;6.686;2023-03-31T09:43:04;99131.88;;;13.92;96.76
13068;BME280;6600;51.362;6.686;2023-03-31T09:45:31;99120.78;;;13.98;95.69
13068;BME280;6600;51.362;6.686;2023-03-31T09:48:01;99118.25;;;14.17;94.90
13068;BME280;6600;51.362;6.686;2023-03-31T09:50:28;99110.06;;;14.42;94.13
13068;BME280;6600;51.362;6.686;2023-03-31T09:52:57;99099.47;;;14.56;93.24
13068;BME280;6600;51.362;6.686;2023-03-31T09:55:44;99098.59;;;14.65;91.79
13068;BME280;6600;51.362;6.686;2023-03-31T09:58:15;99095.94;;;14.60;90.46
13068;BME280;6600;51.362;6.686;2023-03-31T10:00:42;99115.38;;;14.52;89.94
13068;BME280;6600;51.362;6.686;2023-03-31T10:03:11;99134.41;;;14.17;93.69
13068;BME280;6600;51.362;6.686;2023-03-31T10:05:46;99127.63;;;13.71;96.98
13068;BME280;6600;51.362;6.686;2023-03-31T10:10:49;99119.13;;;13.33;98.72
13068;BME280;6600;51.362;6.686;2023-03-31T10:13:19;99111.31;;;13.22;99.60
13068;BME280;6600;51.362;6.686;2023-03-31T10:15:44;99111.03;;;13.28;99.76
13068;BME280;6600;51.362;6.686;2023-03-31T10:18:15;99107.22;;;13.49;99.55
13068;BME280;6600;51.362;6.686;2023-03-31T10:20:48;99100.72;;;13.65;98.94
13068;BME280;6600;51.362;6.686;2023-03-31T10:25:46;99095.25;;;13.91;97.81
13068;BME280;6600;51.362;6.686;2023-03-31T10:28:16;99092.19;;;14.07;97.22
13068;BME280;6600;51.362;6.686;2023-03-31T10:30:47;99086.19;;;14.21;96.65
13068;BME280;6600;51.362;6.686;2023-03-31T10:33:16;99078.59;;;14.33;96.59
13068;BME280;6600;51.362;6.686;2023-03-31T10:35:43;99075.59;;;14.44;95.58
13068;BME280;6600;51.362;6.686;2023-03-31T10:38:14;99079.38;;;14.72;94.68
13068;BME280;6600;51.362;6.686;2023-03-31T10:40:49;99075.75;;;14.87;94.45
13068;BME280;6600;51.362;6.686;2023-03-31T10:43:24;99073.53;;;14.94;93.98
13068;BME280;6600;51.362;6.686;2023-03-31T10:45:56;99071.78;;;14.79;94.48
13068;BME280;6600;51.362;6.686;2023-03-31T10:48:37;99081.41;;;14.56;93.50
13068;BME280;6600;51.362;6.686;2023-03-31T10:53:47;99100.72;;;13.65;99.45
13068;BME280;6600;51.362;6.686;2023-03-31T10:56:37;99106.72;;;13.32;100.00
13068;BME280;6600;51.362;6.686;2023-03-31T11:05:23;99109.44;;;13.37;96.38
13068;BME280;6600;51.362;6.686;2023-03-31T11:11:01;99119.09;;;13.43;94.04
13068;BME280;6600;51.362;6.686;2023-03-31T11:14:12;99114.78;;;13.47;95.21
13068;BME280;6600;51.362;6.686;2023-03-31T11:16:43;99098.09;;;13.50;94.37
13068;BME280;6600;51.362;6.686;2023-03-31T11:19:23;99091.31;;;13.63;93.49
13068;BME280;6600;51.362;6.686;2023-03-31T11:22:10;99093.66;;;13.80;94.03
13068;BME280;6600;51.362;6.686;2023-03-31T11:30:21;99087.47;;;13.84;91.47
13068;BME280;6600;51.362;6.686;2023-03-31T11:36:06;99080.34;;;14.03;92.35
13068;BME280;6600;51.362;6.686;2023-03-31T11:41:36;99070.34;;;14.14;91.25
13068;BME280;6600;51.362;6.686;2023-03-31T11:44:06;99070.81;;;14.21;90.90
13068;BME280;6600;51.362;6.686;2023-03-31T11:46:49;99070.47;;;14.38;91.22
13068;BME280;6600;51.362;6.686;2023-03-31T11:54:29;99072.00;;;14.83;86.98
13068;BME280;6600;51.362;6.686;2023-03-31T11:56:56;99055.31;;;14.86;85.31
13068;BME280;6600;51.362;6.686;2023-03-31T11:59:24;99054.16;;;14.92;86.30
13068;BME280;6600;51.362;6.686;2023-03-31T12:04:36;99054.72;;;14.89;85.66
13068;BME280;6600;51.362;6.686;2023-03-31T12:10:35;99052.00;;;14.60;86.63
13068;BME280;6600;51.362;6.686;2023-03-31T12:15:51;99069.19;;;14.30;87.77
13068;BME280;6600;51.362;6.686;2023-03-31T12:18:23;99067.31;;;14.26;89.58
13068;BME280;6600;51.362;6.686;2023-03-31T12:20:55;99081.09;;;14.14;92.61
13068;BME280;6600;51.362;6.686;2023-03-31T12:23:24;99074.97;;;14.03;94.58
13068;BME280;6600;51.362;6.686;2023-03-31T12:28:21;99055.78;;;14.20;95.10
13068;BME280;6600;51.362;6.686;2023-03-31T12:30:47;99044.31;;;14.43;94.81
13068;BME280;6600;51.362;6.686;2023-03-31T12:33:21;99038.56;;;14.55;95.04
13068;BME280;6600;51.362;6.686;2023-03-31T12:36:01;99042.41;;;14.78;91.84
13068;BME280;6600;51.362;6.686;2023-03-31T12:41:27;99025.31;;;15.16;90.01
13068;BME280;6600;51.362;6.686;2023-03-31T12:52:06;99013.09;;;15.47;85.69
13068;BME280;6600;51.362;6.686;2023-03-31T12:54:49;99004.13;;;15.52;86.29
13068;BME280;6600;51.362;6.686;2023-03-31T12:57:23;98994.78;;;15.44;83.88
13068;BME280;6600;51.362;6.686;2023-03-31T13:02:41;99007.16;;;15.45;85.33
13068;BME280;6600;51.362;6.686;2023-03-31T13:08:00;99001.50;;;15.23;83.18
13068;BME280;6600;51.362;6.686;2023-03-31T13:10:28;98998.16;;;15.31;82.56
13068;BME280;6600;51.362;6.686;2023-03-31T13:15:26;98998.47;;;15.53;80.76
13068;BME280;6600;51.362;6.686;2023-03-31T13:17:58;98993.88;;;15.73;81.66
13068;BME280;6600;51.362;6.686;2023-03-31T13:20:30;98996.59;;;15.73;81.96
13068;BME280;6600;51.362;6.686;2023-03-31T13:23:02;98979.38;;;15.87;80.31
13068;BME280;6600;51.362;6.686;2023-03-31T13:27:54;98973.69;;;15.89;79.15
13068;BME280;6600;51.362;6.686;2023-03-31T13:33:10;98980.47;;;15.86;78.84
13068;BME280;6600;51.362;6.686;2023-03-31T13:35:39;98985.38;;;15.84;78.16
13068;BME280;6600;51.362;6.686;2023-03-31T13:38:24;98997.56;;;15.82;77.64
13068;BME280;6600;51.362;6.686;2023-03-31T13:41:01;98976.00;;;15.77;77.18
13068;BME280;6600;51.362;6.686;2023-03-31T13:52:09;98960.19;;;15.89;77.15
13068;BME280;6600;51.362;6.686;2023-03-31T13:54:58;98956.75;;;15.83;77.49
13068;BME280;6600;51.362;6.686;2023-03-31T13:57:39;98954.19;;;15.92;76.82
13068;BME280;6600;51.362;6.686;2023-03-31T14:03:05;98942.72;;;16.00;75.33
13068;BME280;6600;51.362;6.686;2023-03-31T14:05:39;98947.38;;;16.13;76.09
13068;BME280;6600;51.362;6.686;2023-03-31T14:08:10;98938.38;;;16.17;76.12
13068;BME280;6600;51.362;6.686;2023-03-31T14:10:38;98934.16;;;15.93;75.00
13068;BME280;6600;51.362;6.686;2023-03-31T14:13:13;98933.31;;;15.97;75.61
13068;BME280;6600;51.362;6.686;2023-03-31T14:15:48;98930.97;;;15.91;75.90
13068;BME280;6600;51.362;6.686;2023-03-31T14:18:20;98926.75;;;15.85;75.04
13068;BME280;6600;51.362;6.686;2023-03-31T14:21:11;98933.53;;;15.82;76.35
13068;BME280;6600;51.362;6.686;2023-03-31T14:23:49;98919.59;;;15.75;77.99
13068;BME280;6600;51.362;6.686;2023-03-31T14:31:46;98934.28;;;15.45;77.70
13068;BME280;6600;51.362;6.686;2023-03-31T14:37:06;98952.59;;;15.06;82.93
13068;BME280;6600;51.362;6.686;2023-03-31T14:39:44;98973.94;;;14.79;84.61
13068;BME280;6600;51.362;6.686;2023-03-31T14:42:13;98975.72;;;14.59;88.24
13068;BME280;6600;51.362;6.686;2023-03-31T14:44:40;98974.53;;;14.42;90.50
13068;BME280;6600;51.362;6.686;2023-03-31T14:47:23;98969.69;;;14.00;93.50
13068;BME280;6600;51.362;6.686;2023-03-31T14:50:14;98969.19;;;13.93;96.24
13068;BME280;6600;51.362;6.686;2023-03-31T14:52:45;98961.69;;;13.90;97.15
13068;BME280;6600;51.362;6.686;2023-03-31T14:55:15;98957.66;;;13.92;97.66
13068;BME280;6600;51.362;6.686;2023-03-31T14:57:42;98969.03;;;14.18;98.25
13068;BME280;6600;51.362;6.686;2023-03-31T15:00:13;98963.06;;;14.26;97.83
13068;BME280;6600;51.362;6.686;2023-03-31T15:02:42;98970.00;;;14.32;96.91
13068;BME280;6600;51.362;6.686;2023-03-31T15:05:19;98968.13;;;14.28;96.78
13068;BME280;6600;51.362;6.686;2023-03-31T15:07:47;98974.41;;;14.18;96.30
13068;BME280;6600;51.362;6.686;2023-03-31T15:10:17;98970.31;;;13.92;96.91
13068;BME280;6600;51.362;6.686;2023-03-31T15:12:45;98962.00;;;13.83;96.74
13068;BME280;6600;51.362;6.686;2023-03-31T15:15:13;98950.56;;;13.62;97.48
13068;BME280;6600;51.362;6.686;2023-03-31T15:17:40;98931.19;;;13.60;97.08
13068;BME280;6600;51.362;6.686;2023-03-31T15:20:30;98927.50;;;13.90;97.58
13068;BME280;6600;51.362;6.686;2023-03-31T15:22:57;98938.56;;;13.89;97.40
13068;BME280;6600;51.362;6.686;2023-03-31T15:25:34;98927.47;;;13.95;95.96
13068;BME280;6600;51.362;6.686;2023-03-31T15:28:06;98932.28;;;13.98;95.57
13068;BME280;6600;51.362;6.686;2023-03-31T15:30:34;98937.69;;;13.98;94.91
13068;BME280;6600;51.362;6.686;2023-03-31T15:33:00;98926.59;;;14.05;94.49
13068;BME280;6600;51.362;6.686;2023-03-31T15:35:29;98934.81;;;14.18;93.98